sensor_id;sensor_type;location;lat;lon;timestamp;temperature;humidity
12115;DHT22;6121;49.810;6.418;2023-10-08T00:00:26;12.10;99.90
12115;DHT22;6121;49.810;6.418;2023-10-08T00:03:11;12.10;99.90
12115;DHT22;6121;49.810;6.418;2023-10-08T00:05:37;12.20;99.90
12115;DHT22;6121;49.810;6.418;2023-10-08T00:08:04;12.20;99.90
12115;DHT22;6121;49.810;6.418;2023-10-08T00:10:37;12.10;99.90
12115;DHT22;6121;49.810;6.418;2023-10-08T00:13:06;12.20;99.90
12115;DHT22;6121;49.810;6.418;2023-10-08T00:15:42;12.10;99.90
12115;DHT22;6121;49.810;6.418;2023-10-08T00:18:22;12.10;99.90
12115;DHT22;6121;49.810;6.418;2023-10-08T00:20:49;12.00;99.90
12115;DHT22;6121;49.810;6.418;2023-10-08T00:23:41;12.00;99.90
12115;DHT22;6121;49.810;6.418;2023-10-08T00:26:08;11.90;99.90
12115;DHT22;6121;49.810;6.418;2023-10-08T00:28:34;12.30;99.90
12115;DHT22;6121;49.810;6.418;2023-10-08T00:31:02;11.90;99.90
12115;DHT22;6121;49.810;6.418;2023-10-08T00:33:38;11.90;99.90
12115;DHT22;6121;49.810;6.418;2023-10-08T00:36:10;11.90;99.90
12115;DHT22;6121;49.810;6.418;2023-10-08T00:38:46;11.90;99.90
12115;DHT22;6121;49.810;6.418;2023-10-08T00:41:17;11.90;99.90
12115;DHT22;6121;49.810;6.418;2023-10-08T00:43:54;11.90;99.90
12115;DHT22;6121;49.810;6.418;2023-10-08T00:46:25;11.80;99.90
12115;DHT22;6121;49.810;6.418;2023-10-08T00:48:57;11.70;99.90
12115;DHT22;6121;49.810;6.418;2023-10-08T00:51:25;11.70;99.90
12115;DHT22;6121;49.810;6.418;2023-10-08T00:54:03;11.60;99.90
12115;DHT22;6121;49.810;6.418;2023-10-08T00:56:34;11.70;99.90
12115;DHT22;6121;49.810;6.418;2023-10-08T00:59:19;11.70;99.90
12115;DHT22;6121;49.810;6.418;2023-10-08T01:01:50;11.80;99.90
12115;DHT22;6121;49.810;6.418;2023-10-08T01:04:23;11.50;99.90
12115;DHT22;6121;49.810;6.418;2023-10-08T01:06:53;11.80;99.90
12115;DHT22;6121;49.810;6.418;2023-10-08T01:09:28;11.80;99.90
12115;DHT22;6121;49.810;6.418;2023-10-08T01:12:23;11.70;99.90
12115;DHT22;6121;49.810;6.418;2023-10-08T01:14:55;11.90;99.90
12115;DHT22;6121;49.810;6.418;2023-10-08T01:17:22;11.80;99.90
12115;DHT22;6121;49.810;6.418;2023-10-08T01:19:52;11.80;99.90
12115;DHT22;6121;49.810;6.418;2023-10-08T01:22:37;11.70;99.90
12115;DHT22;6121;49.810;6.418;2023-10-08T01:25:05;11.70;99.90
12115;DHT22;6121;49.810;6.418;2023-10-08T01:27:31;11.70;99.90
12115;DHT22;6121;49.810;6.418;2023-10-08T01:30:00;11.70;99.90
12115;DHT22;6121;49.810;6.418;2023-10-08T01:32:40;11.70;99.90
12115;DHT22;6121;49.810;6.418;2023-10-08T01:35:06;11.60;99.90
12115;DHT22;6121;49.810;6.418;2023-10-08T01:37:51;11.50;99.90
12115;DHT22;6121;49.810;6.418;2023-10-08T01:40:18;11.50;99.90
12115;DHT22;6121;49.810;6.418;2023-10-08T01:42:44;11.50;99.90
12115;DHT22;6121;49.810;6.418;2023-10-08T01:45:11;11.50;99.90
12115;DHT22;6121;49.810;6.418;2023-10-08T01:47:39;11.50;99.90
12115;DHT22;6121;49.810;6.418;2023-10-08T01:50:05;11.10;99.90
12115;DHT22;6121;49.810;6.418;2023-10-08T01:52:43;11.30;99.90
12115;DHT22;6121;49.810;6.418;2023-10-08T01:55:12;11.40;99.90
12115;DHT22;6121;49.810;6.418;2023-10-08T01:57:43;11.40;99.90
12115;DHT22;6121;49.810;6.418;2023-10-08T02:00:09;11.40;99.90
12115;DHT22;6121;49.810;6.418;2023-10-08T02:02:37;11.40;99.90
12115;DHT22;6121;49.810;6.418;2023-10-08T02:05:06;11.50;99.90
12115;DHT22;6121;49.810;6.418;2023-10-08T02:07:32;11.40;99.90
12115;DHT22;6121;49.810;6.418;2023-10-08T02:09:59;11.40;99.90
12115;DHT22;6121;49.810;6.418;2023-10-08T02:12:25;11.40;99.90
12115;DHT22;6121;49.810;6.418;2023-10-08T02:14:51;11.40;99.90
12115;DHT22;6121;49.810;6.418;2023-10-08T02:17:17;11.40;99.90
12115;DHT22;6121;49.810;6.418;2023-10-08T02:19:43;11.50;99.90
12115;DHT22;6121;49.810;6.418;2023-10-08T02:22:09;11.40;99.90
12115;DHT22;6121;49.810;6.418;2023-10-08T02:24:36;11.40;99.90
12115;DHT22;6121;49.810;6.418;2023-10-08T02:27:02;11.40;99.90
12115;DHT22;6121;49.810;6.418;2023-10-08T02:29:30;11.40;99.90
12115;DHT22;6121;49.810;6.418;2023-10-08T02:31:56;11.40;99.90
12115;DHT22;6121;49.810;6.418;2023-10-08T02:34:22;11.50;99.90
12115;DHT22;6121;49.810;6.418;2023-10-08T02:36:49;11.30;99.90
12115;DHT22;6121;49.810;6.418;2023-10-08T02:39:15;11.30;99.90
12115;DHT22;6121;49.810;6.418;2023-10-08T02:41:48;11.50;99.90
12115;DHT22;6121;49.810;6.418;2023-10-08T02:44:16;11.30;99.90
12115;DHT22;6121;49.810;6.418;2023-10-08T02:46:43;11.40;99.90
12115;DHT22;6121;49.810;6.418;2023-10-08T02:49:16;11.80;99.90
12115;DHT22;6121;49.810;6.418;2023-10-08T02:51:46;11.40;99.90
12115;DHT22;6121;49.810;6.418;2023-10-08T02:54:20;11.30;99.90
12115;DHT22;6121;49.810;6.418;2023-10-08T02:56:50;11.30;99.90
12115;DHT22;6121;49.810;6.418;2023-10-08T02:59:30;11.30;99.90
12115;DHT22;6121;49.810;6.418;2023-10-08T03:02:12;11.40;99.90
12115;DHT22;6121;49.810;6.418;2023-10-08T03:04:49;11.40;99.90
12115;DHT22;6121;49.810;6.418;2023-10-08T03:07:17;11.60;99.90
12115;DHT22;6121;49.810;6.418;2023-10-08T03:09:59;11.40;99.90
12115;DHT22;6121;49.810;6.418;2023-10-08T03:12:35;11.40;99.90
12115;DHT22;6121;49.810;6.418;2023-10-08T03:15:02;11.30;99.90
12115;DHT22;6121;49.810;6.418;2023-10-08T03:17:47;11.30;99.90
12115;DHT22;6121;49.810;6.418;2023-10-08T03:20:18;11.30;99.90
12115;DHT22;6121;49.810;6.418;2023-10-08T03:22:56;11.30;99.90
12115;DHT22;6121;49.810;6.418;2023-10-08T03:25:23;11.30;99.90
12115;DHT22;6121;49.810;6.418;2023-10-08T03:27:50;11.30;99.90
12115;DHT22;6121;49.810;6.418;2023-10-08T03:30:16;11.20;99.90
12115;DHT22;6121;49.810;6.418;2023-10-08T03:32:43;11.20;99.90
12115;DHT22;6121;49.810;6.418;2023-10-08T03:35:20;11.30;99.90
12115;DHT22;6121;49.810;6.418;2023-10-08T03:37:54;11.30;99.90
12115;DHT22;6121;49.810;6.418;2023-10-08T03:40:20;11.30;99.90
12115;DHT22;6121;49.810;6.418;2023-10-08T03:42:51;11.40;99.90
12115;DHT22;6121;49.810;6.418;2023-10-08T03:45:21;11.40;99.90
12115;DHT22;6121;49.810;6.418;2023-10-08T03:48:06;11.40;99.90
12115;DHT22;6121;49.810;6.418;2023-10-08T03:50:36;11.40;99.90
12115;DHT22;6121;49.810;6.418;2023-10-08T03:53:09;11.40;99.90
12115;DHT22;6121;49.810;6.418;2023-10-08T03:55:39;11.40;99.90
12115;DHT22;6121;49.810;6.418;2023-10-08T03:58:09;11.40;99.90
12115;DHT22;6121;49.810;6.418;2023-10-08T04:00:55;11.40;99.90
12115;DHT22;6121;49.810;6.418;2023-10-08T04:03:43;11.30;99.90
12115;DHT22;6121;49.810;6.418;2023-10-08T04:06:21;11.30;99.90
12115;DHT22;6121;49.810;6.418;2023-10-08T04:09:03;11.30;99.90
12115;DHT22;6121;49.810;6.418;2023-10-08T04:11:36;11.30;99.90
12115;DHT22;6121;49.810;6.418;2023-10-08T04:14:24;11.30;99.90
12115;DHT22;6121;49.810;6.418;2023-10-08T04:16:53;11.30;99.90
12115;DHT22;6121;49.810;6.418;2023-10-08T04:19:20;11.30;99.90
12115;DHT22;6121;49.810;6.418;2023-10-08T04:21:47;11.70;99.90
12115;DHT22;6121;49.810;6.418;2023-10-08T04:24:23;11.20;99.90
12115;DHT22;6121;49.810;6.418;2023-10-08T04:26:55;11.30;99.90
12115;DHT22;6121;49.810;6.418;2023-10-08T04:29:27;11.20;99.90
12115;DHT22;6121;49.810;6.418;2023-10-08T04:31:58;11.30;99.90
12115;DHT22;6121;49.810;6.418;2023-10-08T04:34:28;11.30;99.90
12115;DHT22;6121;49.810;6.418;2023-10-08T04:36:54;11.30;99.90
12115;DHT22;6121;49.810;6.418;2023-10-08T04:39:21;11.20;99.90
12115;DHT22;6121;49.810;6.418;2023-10-08T04:42:00;11.30;99.90
12115;DHT22;6121;49.810;6.418;2023-10-08T04:44:33;11.30;99.90
12115;DHT22;6121;49.810;6.418;2023-10-08T04:46:59;11.20;99.90
12115;DHT22;6121;49.810;6.418;2023-10-08T04:49:31;11.30;99.90
12115;DHT22;6121;49.810;6.418;2023-10-08T04:54:25;11.40;99.90
12115;DHT22;6121;49.810;6.418;2023-10-08T04:56:59;11.40;99.90
12115;DHT22;6121;49.810;6.418;2023-10-08T04:59:28;11.40;99.90
12115;DHT22;6121;49.810;6.418;2023-10-08T05:02:01;11.40;99.90
12115;DHT22;6121;49.810;6.418;2023-10-08T05:04:50;11.40;99.90
12115;DHT22;6121;49.810;6.418;2023-10-08T05:07:49;11.40;99.90
12115;DHT22;6121;49.810;6.418;2023-10-08T05:10:15;11.40;99.90
12115;DHT22;6121;49.810;6.418;2023-10-08T05:12:53;11.30;99.90
12115;DHT22;6121;49.810;6.418;2023-10-08T05:15:29;11.30;99.90
12115;DHT22;6121;49.810;6.418;2023-10-08T05:18:08;11.30;99.90
12115;DHT22;6121;49.810;6.418;2023-10-08T05:20:43;11.30;99.90
12115;DHT22;6121;49.810;6.418;2023-10-08T05:23:16;11.40;99.90
12115;DHT22;6121;49.810;6.418;2023-10-08T05:25:56;11.20;99.90
12115;DHT22;6121;49.810;6.418;2023-10-08T05:28:38;11.40;99.90
12115;DHT22;6121;49.810;6.418;2023-10-08T05:31:23;11.10;99.90
12115;DHT22;6121;49.810;6.418;2023-10-08T05:34:08;11.10;99.90
12115;DHT22;6121;49.810;6.418;2023-10-08T05:36:43;11.10;99.90
12115;DHT22;6121;49.810;6.418;2023-10-08T05:39:28;11.10;99.90
12115;DHT22;6121;49.810;6.418;2023-10-08T05:42:16;11.00;99.90
12115;DHT22;6121;49.810;6.418;2023-10-08T05:44:45;11.00;99.90
12115;DHT22;6121;49.810;6.418;2023-10-08T05:47:16;11.10;99.90
12115;DHT22;6121;49.810;6.418;2023-10-08T05:50:04;11.10;99.90
12115;DHT22;6121;49.810;6.418;2023-10-08T05:52:43;11.00;99.90
12115;DHT22;6121;49.810;6.418;2023-10-08T05:55:38;11.00;99.90
12115;DHT22;6121;49.810;6.418;2023-10-08T05:58:13;11.00;99.90
12115;DHT22;6121;49.810;6.418;2023-10-08T06:00:43;10.90;99.90
12115;DHT22;6121;49.810;6.418;2023-10-08T06:03:31;11.00;99.90
12115;DHT22;6121;49.810;6.418;2023-10-08T06:06:16;11.00;99.90
12115;DHT22;6121;49.810;6.418;2023-10-08T06:08:42;11.00;99.90
12115;DHT22;6121;49.810;6.418;2023-10-08T06:11:26;11.10;99.90
12115;DHT22;6121;49.810;6.418;2023-10-08T06:14:22;11.00;99.90
12115;DHT22;6121;49.810;6.418;2023-10-08T06:17:07;11.10;99.90
12115;DHT22;6121;49.810;6.418;2023-10-08T06:19:50;11.00;99.90
12115;DHT22;6121;49.810;6.418;2023-10-08T06:22:18;10.90;99.90
12115;DHT22;6121;49.810;6.418;2023-10-08T06:24:44;11.00;99.90
12115;DHT22;6121;49.810;6.418;2023-10-08T06:27:10;11.00;99.90
12115;DHT22;6121;49.810;6.418;2023-10-08T06:29:42;11.00;99.90
12115;DHT22;6121;49.810;6.418;2023-10-08T06:32:10;11.00;99.90
12115;DHT22;6121;49.810;6.418;2023-10-08T06:34:37;11.00;99.90
12115;DHT22;6121;49.810;6.418;2023-10-08T06:37:06;11.10;99.90
12115;DHT22;6121;49.810;6.418;2023-10-08T06:39:33;11.00;99.90
12115;DHT22;6121;49.810;6.418;2023-10-08T06:42:13;11.00;99.90
12115;DHT22;6121;49.810;6.418;2023-10-08T06:44:43;11.10;99.90
12115;DHT22;6121;49.810;6.418;2023-10-08T06:47:12;11.20;99.90
12115;DHT22;6121;49.810;6.418;2023-10-08T06:49:42;11.20;99.90
12115;DHT22;6121;49.810;6.418;2023-10-08T06:52:09;11.10;99.90
12115;DHT22;6121;49.810;6.418;2023-10-08T06:54:37;11.20;99.90
12115;DHT22;6121;49.810;6.418;2023-10-08T06:57:02;11.30;99.90
12115;DHT22;6121;49.810;6.418;2023-10-08T06:59:28;11.30;99.90
12115;DHT22;6121;49.810;6.418;2023-10-08T07:01:57;11.30;99.90
12115;DHT22;6121;49.810;6.418;2023-10-08T07:04:24;11.50;99.90
12115;DHT22;6121;49.810;6.418;2023-10-08T07:06:50;11.50;99.90
12115;DHT22;6121;49.810;6.418;2023-10-08T07:09:17;11.40;99.90
12115;DHT22;6121;49.810;6.418;2023-10-08T07:11:58;11.40;99.90
12115;DHT22;6121;49.810;6.418;2023-10-08T07:14:25;11.30;99.90
12115;DHT22;6121;49.810;6.418;2023-10-08T07:16:58;11.30;99.90
12115;DHT22;6121;49.810;6.418;2023-10-08T07:19:28;11.40;99.90
12115;DHT22;6121;49.810;6.418;2023-10-08T07:22:04;11.40;99.90
12115;DHT22;6121;49.810;6.418;2023-10-08T07:24:43;11.50;99.90
12115;DHT22;6121;49.810;6.418;2023-10-08T07:27:32;11.40;99.90
12115;DHT22;6121;49.810;6.418;2023-10-08T07:30:06;11.50;99.90
12115;DHT22;6121;49.810;6.418;2023-10-08T07:32:36;11.60;99.90
12115;DHT22;6121;49.810;6.418;2023-10-08T07:35:04;11.60;99.90
12115;DHT22;6121;49.810;6.418;2023-10-08T07:37:46;11.70;99.90
12115;DHT22;6121;49.810;6.418;2023-10-08T07:40:15;11.70;99.90
12115;DHT22;6121;49.810;6.418;2023-10-08T07:42:41;11.80;99.90
12115;DHT22;6121;49.810;6.418;2023-10-08T07:45:08;11.80;99.90
12115;DHT22;6121;49.810;6.418;2023-10-08T07:47:34;11.90;99.90
12115;DHT22;6121;49.810;6.418;2023-10-08T07:49:59;11.90;99.90
12115;DHT22;6121;49.810;6.418;2023-10-08T07:52:25;12.10;99.90
12115;DHT22;6121;49.810;6.418;2023-10-08T07:54:51;12.10;99.90
12115;DHT22;6121;49.810;6.418;2023-10-08T07:57:18;12.20;99.90
12115;DHT22;6121;49.810;6.418;2023-10-08T07:59:51;12.40;99.90
12115;DHT22;6121;49.810;6.418;2023-10-08T08:02:20;12.50;99.90
12115;DHT22;6121;49.810;6.418;2023-10-08T08:04:53;12.60;99.90
12115;DHT22;6121;49.810;6.418;2023-10-08T08:07:20;12.80;99.90
12115;DHT22;6121;49.810;6.418;2023-10-08T08:09:47;12.90;99.90
12115;DHT22;6121;49.810;6.418;2023-10-08T08:12:26;13.20;99.90
12115;DHT22;6121;49.810;6.418;2023-10-08T08:14:54;13.50;99.90
12115;DHT22;6121;49.810;6.418;2023-10-08T08:17:23;13.70;99.90
12115;DHT22;6121;49.810;6.418;2023-10-08T08:19:50;13.80;99.90
12115;DHT22;6121;49.810;6.418;2023-10-08T08:22:18;14.00;99.90
12115;DHT22;6121;49.810;6.418;2023-10-08T08:24:48;14.20;99.90
12115;DHT22;6121;49.810;6.418;2023-10-08T08:27:19;14.40;99.90
12115;DHT22;6121;49.810;6.418;2023-10-08T08:30:06;14.40;99.90
12115;DHT22;6121;49.810;6.418;2023-10-08T08:32:42;14.80;99.90
12115;DHT22;6121;49.810;6.418;2023-10-08T08:35:13;15.00;99.90
12115;DHT22;6121;49.810;6.418;2023-10-08T08:37:42;15.20;99.90
12115;DHT22;6121;49.810;6.418;2023-10-08T08:40:09;15.50;99.90
12115;DHT22;6121;49.810;6.418;2023-10-08T08:42:45;15.70;99.90
12115;DHT22;6121;49.810;6.418;2023-10-08T08:45:13;16.00;99.90
12115;DHT22;6121;49.810;6.418;2023-10-08T08:47:41;16.30;99.90
12115;DHT22;6121;49.810;6.418;2023-10-08T08:50:07;16.50;99.90
12115;DHT22;6121;49.810;6.418;2023-10-08T08:52:38;16.80;99.90
12115;DHT22;6121;49.810;6.418;2023-10-08T08:55:06;16.80;99.90
12115;DHT22;6121;49.810;6.418;2023-10-08T08:57:41;17.10;99.90
12115;DHT22;6121;49.810;6.418;2023-10-08T09:00:08;17.50;99.90
12115;DHT22;6121;49.810;6.418;2023-10-08T09:02:37;18.10;99.90
12115;DHT22;6121;49.810;6.418;2023-10-08T09:05:04;19.70;99.90
12115;DHT22;6121;49.810;6.418;2023-10-08T09:08:03;20.30;99.90
12115;DHT22;6121;49.810;6.418;2023-10-08T09:10:31;20.00;99.90
12115;DHT22;6121;49.810;6.418;2023-10-08T09:13:04;19.80;99.90
12115;DHT22;6121;49.810;6.418;2023-10-08T09:15:30;19.70;99.90
12115;DHT22;6121;49.810;6.418;2023-10-08T09:17:58;20.10;99.90
12115;DHT22;6121;49.810;6.418;2023-10-08T09:20:30;20.20;99.90
12115;DHT22;6121;49.810;6.418;2023-10-08T09:23:11;20.40;99.90
12115;DHT22;6121;49.810;6.418;2023-10-08T09:25:38;20.70;99.90
12115;DHT22;6121;49.810;6.418;2023-10-08T09:28:05;20.90;99.90
12115;DHT22;6121;49.810;6.418;2023-10-08T09:30:35;21.40;99.90
12115;DHT22;6121;49.810;6.418;2023-10-08T09:33:05;22.00;99.90
12115;DHT22;6121;49.810;6.418;2023-10-08T09:35:32;22.10;99.90
12115;DHT22;6121;49.810;6.418;2023-10-08T09:38:02;22.50;99.90
12115;DHT22;6121;49.810;6.418;2023-10-08T09:40:28;23.10;99.90
12115;DHT22;6121;49.810;6.418;2023-10-08T09:42:55;23.00;99.90
12115;DHT22;6121;49.810;6.418;2023-10-08T09:45:21;23.10;99.90
12115;DHT22;6121;49.810;6.418;2023-10-08T09:47:55;23.40;99.90
12115;DHT22;6121;49.810;6.418;2023-10-08T09:50:31;23.90;99.90
12115;DHT22;6121;49.810;6.418;2023-10-08T09:53:11;23.60;99.90
12115;DHT22;6121;49.810;6.418;2023-10-08T09:56:02;23.80;99.90
12115;DHT22;6121;49.810;6.418;2023-10-08T09:58:32;24.10;99.90
12115;DHT22;6121;49.810;6.418;2023-10-08T10:00:59;24.30;99.90
12115;DHT22;6121;49.810;6.418;2023-10-08T10:03:26;24.20;99.90
12115;DHT22;6121;49.810;6.418;2023-10-08T10:05:52;24.40;99.90
12115;DHT22;6121;49.810;6.418;2023-10-08T10:08:24;24.80;99.90
12115;DHT22;6121;49.810;6.418;2023-10-08T10:10:59;24.90;99.90
12115;DHT22;6121;49.810;6.418;2023-10-08T10:13:33;25.30;99.90
12115;DHT22;6121;49.810;6.418;2023-10-08T10:16:00;25.70;99.90
12115;DHT22;6121;49.810;6.418;2023-10-08T10:20:55;26.20;99.90
12115;DHT22;6121;49.810;6.418;2023-10-08T10:23:46;25.90;99.90
12115;DHT22;6121;49.810;6.418;2023-10-08T10:26:28;26.00;99.90
12115;DHT22;6121;49.810;6.418;2023-10-08T10:31:35;27.30;99.90
12115;DHT22;6121;49.810;6.418;2023-10-08T10:34:07;27.20;99.90
12115;DHT22;6121;49.810;6.418;2023-10-08T10:36:35;27.40;99.90
12115;DHT22;6121;49.810;6.418;2023-10-08T10:39:01;27.40;99.90
12115;DHT22;6121;49.810;6.418;2023-10-08T10:41:47;27.10;99.90
12115;DHT22;6121;49.810;6.418;2023-10-08T10:44:14;27.50;99.90
12115;DHT22;6121;49.810;6.418;2023-10-08T10:46:45;27.50;99.90
12115;DHT22;6121;49.810;6.418;2023-10-08T10:49:19;27.90;99.90
12115;DHT22;6121;49.810;6.418;2023-10-08T10:51:55;28.30;99.90
12115;DHT22;6121;49.810;6.418;2023-10-08T10:54:26;28.50;99.90
12115;DHT22;6121;49.810;6.418;2023-10-08T10:57:02;28.50;99.80
12115;DHT22;6121;49.810;6.418;2023-10-08T10:59:31;28.90;99.90
12115;DHT22;6121;49.810;6.418;2023-10-08T11:02:04;29.00;99.30
12115;DHT22;6121;49.810;6.418;2023-10-08T11:04:56;28.50;99.30
12115;DHT22;6121;49.810;6.418;2023-10-08T11:07:33;28.80;99.80
12115;DHT22;6121;49.810;6.418;2023-10-08T11:10:00;28.60;98.70
12115;DHT22;6121;49.810;6.418;2023-10-08T11:12:25;28.80;99.60
12115;DHT22;6121;49.810;6.418;2023-10-08T11:14:58;29.30;99.00
12115;DHT22;6121;49.810;6.418;2023-10-08T11:17:25;29.20;98.00
12115;DHT22;6121;49.810;6.418;2023-10-08T11:19:52;28.90;98.30
12115;DHT22;6121;49.810;6.418;2023-10-08T11:22:18;29.40;98.20
12115;DHT22;6121;49.810;6.418;2023-10-08T11:24:48;29.20;98.00
12115;DHT22;6121;49.810;6.418;2023-10-08T11:27:16;29.60;97.70
12115;DHT22;6121;49.810;6.418;2023-10-08T11:29:49;29.80;97.40
12115;DHT22;6121;49.810;6.418;2023-10-08T11:32:26;29.90;97.10
12115;DHT22;6121;49.810;6.418;2023-10-08T11:34:59;30.10;97.00
12115;DHT22;6121;49.810;6.418;2023-10-08T11:37:29;30.00;97.10
12115;DHT22;6121;49.810;6.418;2023-10-08T11:39:59;30.10;96.70
12115;DHT22;6121;49.810;6.418;2023-10-08T11:42:25;30.20;96.60
12115;DHT22;6121;49.810;6.418;2023-10-08T11:45:07;30.00;96.30
12115;DHT22;6121;49.810;6.418;2023-10-08T11:47:52;29.60;96.30
12115;DHT22;6121;49.810;6.418;2023-10-08T11:50:29;29.60;95.90
12115;DHT22;6121;49.810;6.418;2023-10-08T11:53:02;29.60;96.30
12115;DHT22;6121;49.810;6.418;2023-10-08T11:55:33;29.60;96.20
12115;DHT22;6121;49.810;6.418;2023-10-08T11:58:01;29.30;96.80
12115;DHT22;6121;49.810;6.418;2023-10-08T12:00:36;29.40;96.70
12115;DHT22;6121;49.810;6.418;2023-10-08T12:03:10;29.20;96.40
12115;DHT22;6121;49.810;6.418;2023-10-08T12:05:38;29.20;96.40
12115;DHT22;6121;49.810;6.418;2023-10-08T12:08:16;29.20;96.40
12115;DHT22;6121;49.810;6.418;2023-10-08T12:10:43;29.30;96.20
12115;DHT22;6121;49.810;6.418;2023-10-08T12:13:10;29.50;96.10
12115;DHT22;6121;49.810;6.418;2023-10-08T12:15:36;29.30;96.00
12115;DHT22;6121;49.810;6.418;2023-10-08T12:18:07;29.10;96.40
12115;DHT22;6121;49.810;6.418;2023-10-08T12:20:50;29.20;95.80
12115;DHT22;6121;49.810;6.418;2023-10-08T12:23:16;28.90;96.20
12115;DHT22;6121;49.810;6.418;2023-10-08T12:25:55;28.60;96.10
12115;DHT22;6121;49.810;6.418;2023-10-08T12:28:26;28.30;96.70
12115;DHT22;6121;49.810;6.418;2023-10-08T12:30:54;28.10;96.90
12115;DHT22;6121;49.810;6.418;2023-10-08T12:33:22;28.20;96.80
12115;DHT22;6121;49.810;6.418;2023-10-08T12:35:53;28.00;97.20
12115;DHT22;6121;49.810;6.418;2023-10-08T12:38:25;28.00;97.10
12115;DHT22;6121;49.810;6.418;2023-10-08T12:40:56;27.80;97.20
12115;DHT22;6121;49.810;6.418;2023-10-08T12:43:25;27.50;97.40
12115;DHT22;6121;49.810;6.418;2023-10-08T12:45:54;27.60;97.90
12115;DHT22;6121;49.810;6.418;2023-10-08T12:48:25;27.60;97.70
12115;DHT22;6121;49.810;6.418;2023-10-08T12:50:52;27.50;98.10
12115;DHT22;6121;49.810;6.418;2023-10-08T12:53:28;27.40;98.10
12115;DHT22;6121;49.810;6.418;2023-10-08T12:56:00;27.10;98.10
12115;DHT22;6121;49.810;6.418;2023-10-08T12:58:35;27.00;99.00
12115;DHT22;6121;49.810;6.418;2023-10-08T13:01:11;26.70;98.90
12115;DHT22;6121;49.810;6.418;2023-10-08T13:03:37;26.50;99.20
12115;DHT22;6121;49.810;6.418;2023-10-08T13:06:17;26.50;99.60
12115;DHT22;6121;49.810;6.418;2023-10-08T13:08:55;26.40;99.60
12115;DHT22;6121;49.810;6.418;2023-10-08T13:11:22;26.10;99.80
12115;DHT22;6121;49.810;6.418;2023-10-08T13:13:52;26.00;99.90
12115;DHT22;6121;49.810;6.418;2023-10-08T13:16:19;25.90;99.90
12115;DHT22;6121;49.810;6.418;2023-10-08T13:18:48;25.80;99.90
12115;DHT22;6121;49.810;6.418;2023-10-08T13:21:14;25.70;99.90
12115;DHT22;6121;49.810;6.418;2023-10-08T13:23:39;25.60;99.90
12115;DHT22;6121;49.810;6.418;2023-10-08T13:26:06;25.60;99.90
12115;DHT22;6121;49.810;6.418;2023-10-08T13:28:36;25.60;99.90
12115;DHT22;6121;49.810;6.418;2023-10-08T13:31:03;25.70;99.90
12115;DHT22;6121;49.810;6.418;2023-10-08T13:33:39;25.70;99.90
12115;DHT22;6121;49.810;6.418;2023-10-08T13:36:06;25.70;99.90
12115;DHT22;6121;49.810;6.418;2023-10-08T13:38:38;25.70;99.90
12115;DHT22;6121;49.810;6.418;2023-10-08T13:41:04;25.60;99.90
12115;DHT22;6121;49.810;6.418;2023-10-08T13:43:41;25.50;99.90
12115;DHT22;6121;49.810;6.418;2023-10-08T13:46:12;25.30;99.90
12115;DHT22;6121;49.810;6.418;2023-10-08T13:48:42;25.10;99.90
12115;DHT22;6121;49.810;6.418;2023-10-08T13:51:12;25.10;99.90
12115;DHT22;6121;49.810;6.418;2023-10-08T13:53:53;25.20;99.90
12115;DHT22;6121;49.810;6.418;2023-10-08T13:56:20;25.20;99.90
12115;DHT22;6121;49.810;6.418;2023-10-08T13:58:50;25.20;99.90
12115;DHT22;6121;49.810;6.418;2023-10-08T14:01:17;25.20;99.90
12115;DHT22;6121;49.810;6.418;2023-10-08T14:03:50;25.00;99.90
12115;DHT22;6121;49.810;6.418;2023-10-08T14:06:19;25.00;99.90
12115;DHT22;6121;49.810;6.418;2023-10-08T14:08:46;25.10;99.90
12115;DHT22;6121;49.810;6.418;2023-10-08T14:11:21;25.10;99.90
12115;DHT22;6121;49.810;6.418;2023-10-08T14:13:52;25.00;99.90
12115;DHT22;6121;49.810;6.418;2023-10-08T14:16:21;25.00;99.90
12115;DHT22;6121;49.810;6.418;2023-10-08T14:18:52;25.00;99.90
12115;DHT22;6121;49.810;6.418;2023-10-08T14:21:20;25.00;99.90
12115;DHT22;6121;49.810;6.418;2023-10-08T14:23:50;24.90;99.90
12115;DHT22;6121;49.810;6.418;2023-10-08T14:26:18;24.90;99.90
12115;DHT22;6121;49.810;6.418;2023-10-08T14:28:50;24.90;99.90
12115;DHT22;6121;49.810;6.418;2023-10-08T14:31:20;24.80;99.90
12115;DHT22;6121;49.810;6.418;2023-10-08T14:33:50;24.80;99.90
12115;DHT22;6121;49.810;6.418;2023-10-08T14:36:32;24.60;99.90
12115;DHT22;6121;49.810;6.418;2023-10-08T14:39:17;24.50;99.90
12115;DHT22;6121;49.810;6.418;2023-10-08T14:42:02;24.50;99.90
12115;DHT22;6121;49.810;6.418;2023-10-08T14:44:46;24.50;99.90
12115;DHT22;6121;49.810;6.418;2023-10-08T14:47:13;24.40;99.90
12115;DHT22;6121;49.810;6.418;2023-10-08T14:49:38;24.40;99.90
12115;DHT22;6121;49.810;6.418;2023-10-08T14:52:04;24.30;99.90
12115;DHT22;6121;49.810;6.418;2023-10-08T14:54:31;24.30;99.90
12115;DHT22;6121;49.810;6.418;2023-10-08T14:56:59;24.20;99.90
12115;DHT22;6121;49.810;6.418;2023-10-08T14:59:26;24.10;99.90
12115;DHT22;6121;49.810;6.418;2023-10-08T15:01:56;24.20;99.90
12115;DHT22;6121;49.810;6.418;2023-10-08T15:04:24;24.30;99.90
12115;DHT22;6121;49.810;6.418;2023-10-08T15:06:52;24.20;99.90
12115;DHT22;6121;49.810;6.418;2023-10-08T15:09:17;24.00;99.90
12115;DHT22;6121;49.810;6.418;2023-10-08T15:11:53;24.10;99.90
12115;DHT22;6121;49.810;6.418;2023-10-08T15:14:19;24.00;99.90
12115;DHT22;6121;49.810;6.418;2023-10-08T15:16:46;24.00;99.90
12115;DHT22;6121;49.810;6.418;2023-10-08T15:19:19;24.00;99.90
12115;DHT22;6121;49.810;6.418;2023-10-08T15:21:45;23.90;99.90
12115;DHT22;6121;49.810;6.418;2023-10-08T15:24:22;23.90;99.90
12115;DHT22;6121;49.810;6.418;2023-10-08T15:26:52;23.80;99.90
12115;DHT22;6121;49.810;6.418;2023-10-08T15:29:22;23.80;99.90
12115;DHT22;6121;49.810;6.418;2023-10-08T15:31:52;23.70;99.90
12115;DHT22;6121;49.810;6.418;2023-10-08T15:34:23;23.50;99.90
12115;DHT22;6121;49.810;6.418;2023-10-08T15:36:52;23.50;99.90
12115;DHT22;6121;49.810;6.418;2023-10-08T15:39:18;23.50;99.90
12115;DHT22;6121;49.810;6.418;2023-10-08T15:41:50;23.40;99.90
12115;DHT22;6121;49.810;6.418;2023-10-08T15:44:19;23.50;99.90
12115;DHT22;6121;49.810;6.418;2023-10-08T15:46:51;23.30;99.90
12115;DHT22;6121;49.810;6.418;2023-10-08T15:49:17;23.70;99.90
12115;DHT22;6121;49.810;6.418;2023-10-08T15:51:46;23.20;99.90
12115;DHT22;6121;49.810;6.418;2023-10-08T15:54:12;23.50;99.90
12115;DHT22;6121;49.810;6.418;2023-10-08T15:56:38;23.20;99.90
12115;DHT22;6121;49.810;6.418;2023-10-08T15:59:04;23.00;99.90
12115;DHT22;6121;49.810;6.418;2023-10-08T16:01:30;22.90;99.90
12115;DHT22;6121;49.810;6.418;2023-10-08T16:03:55;22.80;99.90
12115;DHT22;6121;49.810;6.418;2023-10-08T16:06:21;23.20;99.90
12115;DHT22;6121;49.810;6.418;2023-10-08T16:08:47;22.60;99.90
12115;DHT22;6121;49.810;6.418;2023-10-08T16:11:14;22.50;99.90
12115;DHT22;6121;49.810;6.418;2023-10-08T16:13:40;22.30;99.90
12115;DHT22;6121;49.810;6.418;2023-10-08T16:16:08;22.60;99.90
12115;DHT22;6121;49.810;6.418;2023-10-08T16:18:35;22.20;99.90
12115;DHT22;6121;49.810;6.418;2023-10-08T16:21:02;22.30;99.90